createdAt,value
2023-02-15T00:00:11.824Z,76.97
2023-02-15T00:02:40.766Z,73.38
2023-02-15T00:05:09.313Z,73.40
2023-02-15T00:07:37.212Z,76.10
2023-02-15T00:10:05.873Z,78.00
2023-02-15T00:12:33.946Z,78.30
2023-02-15T00:15:01.800Z,75.53
2023-02-15T00:17:30.456Z,70.35
2023-02-15T00:19:58.279Z,77.72
2023-02-15T00:22:27.133Z,73.30
2023-02-15T00:24:54.975Z,71.28
2023-02-15T00:27:22.917Z,76.70
2023-02-15T00:29:50.874Z,69.80
2023-02-15T00:32:18.716Z,71.45
2023-02-15T00:34:46.489Z,71.68
2023-02-15T00:37:14.374Z,69.35
2023-02-15T00:39:42.306Z,64.78
2023-02-15T00:42:10.266Z,67.32
2023-02-15T00:44:38.215Z,71.95
2023-02-15T00:47:06.177Z,67.68
2023-02-15T00:49:34.025Z,71.90
2023-02-15T00:52:02.913Z,66.20
2023-02-15T00:54:30.885Z,61.50
2023-02-15T00:56:58.886Z,71.47
2023-02-15T00:59:26.906Z,69.05
2023-02-15T01:01:54.860Z,65.55
2023-02-15T01:04:22.812Z,70.57
2023-02-15T01:06:51.128Z,69.72
2023-02-15T01:09:19.099Z,70.90
2023-02-15T01:11:48.200Z,67.00
2023-02-15T01:14:16.210Z,64.22
2023-02-15T01:16:44.048Z,60.63
2023-02-15T01:19:12.031Z,62.10
2023-02-15T01:21:42.042Z,66.18
2023-02-15T01:24:15.427Z,61.83
2023-02-15T01:26:43.422Z,65.45
2023-02-15T01:29:11.353Z,65.38
2023-02-15T01:31:40.545Z,66.43
2023-02-15T01:34:08.630Z,66.18
2023-02-15T01:36:37.073Z,64.03
2023-02-15T01:39:05.171Z,66.55
2023-02-15T01:41:34.020Z,60.35
2023-02-15T01:44:04.064Z,60.72
2023-02-15T01:46:44.187Z,65.90
2023-02-15T01:49:17.903Z,60.05
2023-02-15T01:51:48.311Z,56.72
2023-02-15T01:54:27.406Z,54.30
2023-02-15T01:57:00.929Z,54.85
2023-02-15T01:59:29.307Z,63.65
2023-02-15T02:02:00.827Z,62.17
2023-02-15T02:04:52.101Z,58.15
2023-02-15T02:07:23.703Z,55.45
2023-02-15T02:09:51.815Z,59.70
2023-02-15T02:12:22.607Z,59.90
2023-02-15T02:14:52.706Z,58.13
2023-02-15T02:17:28.126Z,55.45
2023-02-15T02:20:29.910Z,55.83
2023-02-15T02:23:33.364Z,49.58
2023-02-15T02:26:10.248Z,57.97
2023-02-15T02:28:43.985Z,57.58
2023-02-15T02:31:30.617Z,53.92
2023-02-15T02:34:18.391Z,52.55
2023-02-15T02:37:24.567Z,53.13
2023-02-15T02:40:01.877Z,57.35
2023-02-15T02:42:51.683Z,60.15
2023-02-15T02:45:44.815Z,57.63
2023-02-15T02:48:21.046Z,55.08
2023-02-15T02:50:50.720Z,52.35
2023-02-15T02:53:18.568Z,51.20
2023-02-15T02:56:00.134Z,53.95
2023-02-15T02:58:36.378Z,53.10
2023-02-15T03:01:13.119Z,52.30
2023-02-15T03:03:48.006Z,48.25
2023-02-15T03:06:30.351Z,46.38
2023-02-15T03:09:25.149Z,49.50
2023-02-15T03:11:53.068Z,53.38
2023-02-15T03:14:22.817Z,47.95
2023-02-15T03:16:52.997Z,52.67
2023-02-15T03:19:28.760Z,50.22
2023-02-15T03:22:10.456Z,53.63
2023-02-15T03:24:54.592Z,48.88
2023-02-15T03:27:28.891Z,52.75
2023-02-15T03:30:00.022Z,50.15
2023-02-15T03:32:30.865Z,55.20
2023-02-15T03:34:58.872Z,50.78
2023-02-15T03:37:40.332Z,47.95
2023-02-15T03:40:45.852Z,56.92
2023-02-15T03:43:35.800Z,54.30
2023-02-15T03:46:19.233Z,50.53
2023-02-15T03:49:07.359Z,58.63
2023-02-15T03:51:40.602Z,53.88
2023-02-15T03:54:38.902Z,52.20
2023-02-15T03:57:58.372Z,51.60
2023-02-15T04:00:44.929Z,56.08
2023-02-15T04:03:48.090Z,52.22
2023-02-15T04:06:16.035Z,49.37
2023-02-15T04:09:02.341Z,51.70
2023-02-15T04:11:30.221Z,53.60
2023-02-15T04:13:58.158Z,59.15
2023-02-15T04:16:26.978Z,56.08
2023-02-15T04:19:13.959Z,51.13
2023-02-15T04:22:00.486Z,53.53
2023-02-15T04:24:46.828Z,51.05
2023-02-15T04:27:15.721Z,50.05
2023-02-15T04:29:44.260Z,52.38
2023-02-15T04:32:12.234Z,52.35
2023-02-15T04:34:40.205Z,47.38
2023-02-15T04:37:08.097Z,53.75
2023-02-15T04:39:36.029Z,58.15
2023-02-15T04:42:03.985Z,50.60
2023-02-15T04:44:31.783Z,55.38
2023-02-15T04:46:59.664Z,51.17
2023-02-15T04:49:27.533Z,52.88
2023-02-15T04:51:55.419Z,50.47
2023-02-15T04:54:23.339Z,51.20
2023-02-15T04:56:51.241Z,52.47
2023-02-15T04:59:19.074Z,52.88
2023-02-15T05:01:46.877Z,51.30
2023-02-15T05:04:14.905Z,47.17
2023-02-15T05:06:42.777Z,55.25
2023-02-15T05:09:12.625Z,46.83
2023-02-15T05:11:40.504Z,50.03
2023-02-15T05:14:08.866Z,47.83
2023-02-15T05:16:36.726Z,47.58
2023-02-15T05:19:05.058Z,56.00
2023-02-15T05:21:34.062Z,48.20
2023-02-15T05:24:01.904Z,50.80
2023-02-15T05:26:48.247Z,54.28
2023-02-15T05:29:16.128Z,53.72
2023-02-15T05:31:48.726Z,50.63
2023-02-15T05:34:16.620Z,49.95
2023-02-15T05:36:44.490Z,51.30
2023-02-15T05:39:12.370Z,42.97
2023-02-15T05:41:40.273Z,49.05
2023-02-15T05:44:08.100Z,57.30
2023-02-15T05:46:35.996Z,50.25
2023-02-15T05:49:04.185Z,50.67
2023-02-15T05:51:32.085Z,47.42
2023-02-15T05:53:59.960Z,49.08
2023-02-15T05:56:27.839Z,46.78
2023-02-15T05:58:56.071Z,45.95
2023-02-15T06:01:24.186Z,49.00
2023-02-15T06:03:53.297Z,45.00
2023-02-15T06:06:21.206Z,51.38
2023-02-15T06:08:49.386Z,47.05
2023-02-15T06:11:17.347Z,47.97
2023-02-15T06:13:45.230Z,50.40
2023-02-15T06:16:13.090Z,46.67
2023-02-15T06:18:40.986Z,44.00
2023-02-15T06:21:08.859Z,49.75
2023-02-15T06:23:36.728Z,53.38
2023-02-15T06:26:04.888Z,53.45
2023-02-15T06:28:32.835Z,49.92
2023-02-15T06:31:00.793Z,48.30
2023-02-15T06:33:28.808Z,45.33
2023-02-15T06:35:56.641Z,50.80
2023-02-15T06:38:24.463Z,50.88
2023-02-15T06:40:52.331Z,55.17
2023-02-15T06:43:20.181Z,50.30
2023-02-15T06:45:48.171Z,46.85
2023-02-15T06:48:16.211Z,47.97
2023-02-15T06:50:44.275Z,51.50
2023-02-15T06:53:12.182Z,52.88
2023-02-15T06:55:40.051Z,50.17
2023-02-15T06:58:07.935Z,64.53
2023-02-15T07:00:35.779Z,52.92
2023-02-15T07:03:04.098Z,50.45
2023-02-15T07:05:35.226Z,54.63
2023-02-15T07:08:03.400Z,58.63
2023-02-15T07:10:31.410Z,52.05
2023-02-15T07:12:59.355Z,52.20
2023-02-15T07:15:27.358Z,53.95
2023-02-15T07:17:55.222Z,57.60
2023-02-15T07:20:24.637Z,50.85
2023-02-15T07:22:53.056Z,65.70
2023-02-15T07:25:21.365Z,56.53
2023-02-15T07:27:49.213Z,58.67
2023-02-15T07:30:18.416Z,54.92
2023-02-15T07:33:05.859Z,55.42
2023-02-15T07:35:35.047Z,59.10
2023-02-15T07:38:02.942Z,56.80
2023-02-15T07:40:30.957Z,60.08
2023-02-15T07:43:00.351Z,55.30
2023-02-15T07:45:28.396Z,56.22
2023-02-15T07:47:56.484Z,54.40
2023-02-15T07:50:24.526Z,54.10
2023-02-15T07:52:52.455Z,59.17
2023-02-15T07:55:20.744Z,59.47
2023-02-15T07:57:51.175Z,53.92
2023-02-15T08:00:24.686Z,64.00
2023-02-15T08:03:13.695Z,63.80
2023-02-15T08:05:44.383Z,60.53
2023-02-15T08:08:31.823Z,60.25
2023-02-15T08:11:21.858Z,65.55
2023-02-15T08:13:57.693Z,60.45
2023-02-15T08:16:36.250Z,54.97
2023-02-15T08:19:08.351Z,53.38
2023-02-15T08:21:39.132Z,50.65
2023-02-15T08:24:09.753Z,59.55
2023-02-15T08:26:41.785Z,56.40
2023-02-15T08:29:11.435Z,52.25
2023-02-15T08:31:42.185Z,57.72
2023-02-15T08:34:12.770Z,56.63
2023-02-15T08:36:40.973Z,57.13
2023-02-15T08:39:09.218Z,55.58
2023-02-15T08:42:02.640Z,64.25
2023-02-15T08:47:03.938Z,61.65
2023-02-15T08:49:32.679Z,58.67
2023-02-15T08:52:00.936Z,61.05
2023-02-15T08:54:28.915Z,58.60
2023-02-15T08:56:56.836Z,63.40
2023-02-15T08:59:26.672Z,66.65
2023-02-15T09:01:55.174Z,55.28
2023-02-15T09:04:23.776Z,59.03
2023-02-15T09:06:52.598Z,56.83
2023-02-15T09:09:21.221Z,55.65
2023-02-15T09:11:56.788Z,57.60
2023-02-15T09:14:27.874Z,56.65
2023-02-15T09:16:56.504Z,62.10
2023-02-15T09:19:25.178Z,62.78
2023-02-15T09:21:53.365Z,61.65
2023-02-15T09:24:21.382Z,65.95
2023-02-15T09:26:49.964Z,64.20
2023-02-15T09:29:19.227Z,71.25
2023-02-15T09:31:50.176Z,72.40
2023-02-15T09:34:21.124Z,73.57
2023-02-15T09:36:50.127Z,81.57
2023-02-15T09:39:21.091Z,78.63
2023-02-15T09:41:55.204Z,78.70
2023-02-15T09:44:42.166Z,89.00
2023-02-15T09:47:47.434Z,88.22
2023-02-15T09:50:35.093Z,94.88
2023-02-15T09:53:25.900Z,84.38
2023-02-15T09:56:15.396Z,78.72
2023-02-15T09:58:52.420Z,69.28
2023-02-15T10:01:44.285Z,76.20
2023-02-15T10:04:36.850Z,81.55
2023-02-15T10:07:29.434Z,83.00
2023-02-15T10:10:16.411Z,73.88
2023-02-15T10:13:12.500Z,75.30
2023-02-15T10:15:59.897Z,82.68
2023-02-15T10:18:33.742Z,72.82
2023-02-15T10:21:13.512Z,65.10
2023-02-15T10:23:56.471Z,71.05
2023-02-15T10:26:37.274Z,59.40
2023-02-15T10:29:29.560Z,58.38
2023-02-15T10:32:06.815Z,59.53
2023-02-15T10:34:43.570Z,58.65
2023-02-15T10:37:18.442Z,59.97
2023-02-15T10:40:07.877Z,52.50
2023-02-15T10:42:41.736Z,52.28
2023-02-15T10:45:25.269Z,58.53
2023-02-15T10:48:14.413Z,50.67
2023-02-15T10:50:48.202Z,53.10
2023-02-15T10:53:45.190Z,55.78
2023-02-15T10:56:29.977Z,53.50
2023-02-15T10:59:27.382Z,58.47
2023-02-15T11:02:02.361Z,55.65
2023-02-15T11:04:48.704Z,54.50
2023-02-15T11:07:28.060Z,50.83
2023-02-15T11:10:06.325Z,49.03
2023-02-15T11:12:34.819Z,48.60
2023-02-15T11:15:16.882Z,51.67
2023-02-15T11:17:52.273Z,57.00
2023-02-15T11:20:25.822Z,45.72
2023-02-15T11:22:54.960Z,50.33
2023-02-15T11:25:31.715Z,51.13
2023-02-15T11:28:01.108Z,48.15
2023-02-15T11:30:52.879Z,56.83
2023-02-15T11:33:30.416Z,53.60
2023-02-15T11:36:10.081Z,54.42
2023-02-15T11:38:44.466Z,53.58
2023-02-15T11:41:21.132Z,57.33
2023-02-15T11:44:02.237Z,46.13
2023-02-15T11:46:30.232Z,53.13
2023-02-15T11:48:59.578Z,43.83
2023-02-15T11:51:29.958Z,44.97
2023-02-15T11:53:58.048Z,49.28
2023-02-15T11:56:27.709Z,45.63
2023-02-15T11:58:59.097Z,44.72
2023-02-15T12:01:43.774Z,56.80
2023-02-15T12:04:25.941Z,45.70
2023-02-15T12:07:03.120Z,39.95
2023-02-15T12:09:39.930Z,35.97
2023-02-15T12:12:31.772Z,36.03
2023-02-15T12:15:05.602Z,38.50
2023-02-15T12:17:53.469Z,32.60
2023-02-15T12:20:21.375Z,33.08
2023-02-15T12:23:14.737Z,32.92
2023-02-15T12:25:55.565Z,32.47
2023-02-15T12:28:41.057Z,34.17
2023-02-15T12:31:42.464Z,32.65
2023-02-15T12:34:40.835Z,32.40
2023-02-15T12:37:20.179Z,33.92
2023-02-15T12:39:57.983Z,29.83
2023-02-15T12:42:27.792Z,33.33
2023-02-15T12:45:05.141Z,31.13
2023-02-15T12:47:33.676Z,35.13
2023-02-15T12:50:34.589Z,34.85
2023-02-15T12:53:24.860Z,30.45
2023-02-15T12:55:58.319Z,36.30
2023-02-15T12:58:28.278Z,34.05
2023-02-15T13:01:26.960Z,34.88
2023-02-15T13:04:05.600Z,26.77
2023-02-15T13:06:36.626Z,27.25
2023-02-15T13:09:13.463Z,26.37
2023-02-15T13:11:45.098Z,30.13
2023-02-15T13:14:33.876Z,32.15
2023-02-15T13:17:07.082Z,31.98
2023-02-15T13:19:51.815Z,32.72
2023-02-15T13:22:49.170Z,30.75
2023-02-15T13:25:26.513Z,30.83
2023-02-15T13:27:58.537Z,26.33
2023-02-15T13:30:33.773Z,26.77
2023-02-15T13:33:07.912Z,31.77
2023-02-15T13:35:51.505Z,26.10
2023-02-15T13:38:38.876Z,27.83
2023-02-15T13:41:14.623Z,27.30
2023-02-15T13:43:47.916Z,27.45
2023-02-15T13:46:30.854Z,27.85
2023-02-15T13:49:18.072Z,28.90
2023-02-15T13:52:05.668Z,27.63
2023-02-15T13:55:11.871Z,28.58
2023-02-15T13:58:13.574Z,29.77
2023-02-15T14:00:47.125Z,33.25
2023-02-15T14:03:52.723Z,23.60
2023-02-15T14:06:50.796Z,25.42
2023-02-15T14:09:29.436Z,22.65
2023-02-15T14:12:09.338Z,26.55
2023-02-15T14:15:03.255Z,28.25
2023-02-15T14:17:46.409Z,26.35
2023-02-15T14:20:45.425Z,29.17
2023-02-15T14:23:31.181Z,31.77
2023-02-15T14:26:15.366Z,32.90
2023-02-15T14:29:13.807Z,31.45
2023-02-15T14:31:50.713Z,31.92
2023-02-15T14:34:43.975Z,31.45
2023-02-15T14:37:15.413Z,31.27
2023-02-15T14:40:16.137Z,35.55
2023-02-15T14:42:49.334Z,33.22
2023-02-15T14:45:44.848Z,36.08
2023-02-15T14:48:31.179Z,34.97
2023-02-15T14:50:59.143Z,39.40
2023-02-15T14:53:33.132Z,36.53
2023-02-15T14:56:11.098Z,43.20
2023-02-15T14:58:39.469Z,41.55
2023-02-15T15:01:29.929Z,43.88
2023-02-15T15:04:23.152Z,46.30
2023-02-15T15:07:03.502Z,46.30
2023-02-15T15:09:35.172Z,51.17
2023-02-15T15:12:35.324Z,56.78
2023-02-15T15:15:05.260Z,53.63
2023-02-15T15:17:33.570Z,58.33
2023-02-15T15:20:02.734Z,56.13
2023-02-15T15:22:34.291Z,50.08
2023-02-15T15:25:11.905Z,49.50
2023-02-15T15:27:44.794Z,59.75
2023-02-15T15:32:55.595Z,64.68
2023-02-15T15:35:45.140Z,70.60
2023-02-15T15:38:31.345Z,74.13
2023-02-15T15:41:25.516Z,71.65
2023-02-15T15:44:22.582Z,82.90
2023-02-15T15:47:07.442Z,79.53
2023-02-15T15:49:39.294Z,80.60
2023-02-15T15:52:16.779Z,86.55
2023-02-15T15:54:48.414Z,79.07
2023-02-15T15:57:46.958Z,83.70
2023-02-15T16:00:39.502Z,77.22
2023-02-15T16:03:14.946Z,87.43
2023-02-15T16:05:42.987Z,86.75
2023-02-15T16:08:10.867Z,79.25
2023-02-15T16:10:39.130Z,84.57
2023-02-15T16:13:08.330Z,86.03
2023-02-15T16:15:45.878Z,85.00
2023-02-15T16:18:18.335Z,85.05
2023-02-15T16:21:04.638Z,85.43
2023-02-15T16:23:41.023Z,88.15
2023-02-15T16:26:20.071Z,95.97
2023-02-15T16:28:52.856Z,83.18
2023-02-15T16:31:23.914Z,92.45
2023-02-15T16:33:56.685Z,85.55
2023-02-15T16:36:25.950Z,93.43
2023-02-15T16:38:53.745Z,90.10
2023-02-15T16:41:34.326Z,88.18
2023-02-15T16:44:08.725Z,96.93
2023-02-15T16:46:44.025Z,92.20
2023-02-15T16:49:20.785Z,88.07
2023-02-15T16:52:06.824Z,102.78
2023-02-15T16:54:36.442Z,88.28
2023-02-15T16:57:04.565Z,103.25
2023-02-15T16:59:44.522Z,80.45
2023-02-15T17:02:49.429Z,76.15
2023-02-15T17:05:16.903Z,76.20
2023-02-15T17:08:05.684Z,81.82
2023-02-15T17:10:38.226Z,75.32
2023-02-15T17:13:15.033Z,75.70
2023-02-15T17:16:02.206Z,83.88
2023-02-15T17:18:48.506Z,84.32
2023-02-15T17:21:22.409Z,80.30
2023-02-15T17:23:53.879Z,84.80
2023-02-15T17:26:29.860Z,82.68
2023-02-15T17:29:12.425Z,84.10
2023-02-15T17:31:41.924Z,83.82
2023-02-15T17:34:49.451Z,77.78
2023-02-15T17:37:37.838Z,86.20
2023-02-15T17:40:33.682Z,91.70
2023-02-15T17:43:01.901Z,92.57
2023-02-15T17:45:41.569Z,88.22
2023-02-15T17:48:31.951Z,88.38
2023-02-15T17:51:03.150Z,95.05
2023-02-15T17:53:31.518Z,91.38
2023-02-15T17:55:59.605Z,91.88
2023-02-15T17:58:27.577Z,99.07
2023-02-15T18:01:17.594Z,102.80
2023-02-15T18:04:10.359Z,107.45
2023-02-15T18:07:00.346Z,104.07
2023-02-15T18:09:47.193Z,98.70
2023-02-15T18:12:23.936Z,92.90
2023-02-15T18:14:54.438Z,97.95
2023-02-15T18:17:30.085Z,97.28
2023-02-15T18:19:58.053Z,92.38
2023-02-15T18:22:29.114Z,96.90
2023-02-15T18:24:57.035Z,89.50
2023-02-15T18:27:24.934Z,85.63
2023-02-15T18:29:52.809Z,93.97
2023-02-15T18:32:32.890Z,95.57
2023-02-15T18:35:03.813Z,98.07
2023-02-15T18:37:33.627Z,89.18
2023-02-15T18:40:04.410Z,92.18
2023-02-15T18:42:35.376Z,82.70
2023-02-15T18:45:16.556Z,84.82
2023-02-15T18:47:46.225Z,79.40
2023-02-15T18:50:16.473Z,76.97
2023-02-15T18:52:47.538Z,72.57
2023-02-15T18:55:18.494Z,74.57
2023-02-15T18:57:48.883Z,75.07
2023-02-15T19:00:28.528Z,81.57
2023-02-15T19:02:57.540Z,89.53
2023-02-15T19:05:30.217Z,90.22
2023-02-15T19:08:00.156Z,91.47
2023-02-15T19:10:30.621Z,86.90
2023-02-15T19:12:58.854Z,88.15
2023-02-15T19:15:30.659Z,83.97
2023-02-15T19:17:58.800Z,86.00
2023-02-15T19:20:39.937Z,80.97
2023-02-15T19:23:15.737Z,82.68
2023-02-15T19:25:43.685Z,79.30
2023-02-15T19:28:29.832Z,89.82
2023-02-15T19:30:57.986Z,86.95
2023-02-15T19:33:26.147Z,75.55
2023-02-15T19:35:58.178Z,87.03
2023-02-15T19:38:32.006Z,72.70
2023-02-15T19:41:08.240Z,81.25
2023-02-15T19:43:36.743Z,89.32
2023-02-15T19:46:05.962Z,80.90
2023-02-15T19:48:34.805Z,82.05
2023-02-15T19:51:04.800Z,77.38
2023-02-15T19:53:34.244Z,80.43
2023-02-15T19:56:04.247Z,79.60
2023-02-15T19:58:34.929Z,83.60
2023-02-15T20:01:04.282Z,80.50
2023-02-15T20:03:34.687Z,78.53
2023-02-15T20:06:04.382Z,77.85
2023-02-15T20:08:33.356Z,83.40
2023-02-15T20:11:02.381Z,79.13
2023-02-15T20:13:31.427Z,79.85
2023-02-15T20:16:02.583Z,76.40
2023-02-15T20:18:31.803Z,79.47
2023-02-15T20:21:02.859Z,85.75
2023-02-15T20:23:38.416Z,79.07
2023-02-15T20:26:19.514Z,81.97
2023-02-15T20:28:51.058Z,77.30
2023-02-15T20:31:21.773Z,77.38
2023-02-15T20:33:51.265Z,78.75
2023-02-15T20:36:22.434Z,86.90
2023-02-15T20:38:52.317Z,75.80
2023-02-15T20:41:37.002Z,78.80
2023-02-15T20:44:26.565Z,80.72
2023-02-15T20:46:57.301Z,77.32
2023-02-15T20:49:27.087Z,76.55
2023-02-15T20:51:56.352Z,77.85
2023-02-15T20:54:26.902Z,80.00
2023-02-15T20:56:54.650Z,88.63
2023-02-15T20:59:32.159Z,77.13
2023-02-15T21:02:21.141Z,83.13
2023-02-15T21:04:48.938Z,78.65
2023-02-15T21:07:18.955Z,80.65
2023-02-15T21:09:47.058Z,73.32
2023-02-15T21:12:17.289Z,89.07
2023-02-15T21:14:45.681Z,89.57
2023-02-15T21:17:16.252Z,92.35
2023-02-15T21:19:44.098Z,88.25
2023-02-15T21:22:14.563Z,79.22
2023-02-15T21:24:51.201Z,86.20
2023-02-15T21:27:19.166Z,78.10
2023-02-15T21:29:46.872Z,79.07
2023-02-15T21:32:14.707Z,91.90
2023-02-15T21:34:42.497Z,79.35
2023-02-15T21:37:30.530Z,86.65
2023-02-15T21:39:58.486Z,81.70
2023-02-15T21:42:46.802Z,88.07
2023-02-15T21:45:37.635Z,79.80
2023-02-15T21:48:05.513Z,87.88
2023-02-15T21:50:54.393Z,77.80
2023-02-15T21:53:33.569Z,78.53
2023-02-15T21:56:03.842Z,78.57
2023-02-15T21:58:35.836Z,88.35
2023-02-15T22:01:05.938Z,82.28
2023-02-15T22:03:36.443Z,78.55
2023-02-15T22:06:04.702Z,77.65
2023-02-15T22:08:33.224Z,82.32
2023-02-15T22:11:01.096Z,89.57
2023-02-15T22:13:32.357Z,81.60
2023-02-15T22:16:00.228Z,77.97
2023-02-15T22:18:33.973Z,81.63
2023-02-15T22:21:03.901Z,79.70
2023-02-15T22:23:32.392Z,79.90
2023-02-15T22:26:05.450Z,85.25
2023-02-15T22:28:51.749Z,77.97
2023-02-15T22:31:21.707Z,80.65
2023-02-15T22:33:52.528Z,85.13
2023-02-15T22:36:30.170Z,74.40
2023-02-15T22:38:58.505Z,83.57
2023-02-15T22:41:29.435Z,82.93
2023-02-15T22:43:57.909Z,81.40
2023-02-15T22:46:26.745Z,80.75
2023-02-15T22:48:54.630Z,78.13
2023-02-15T22:51:24.145Z,83.63
2023-02-15T22:53:52.504Z,76.63
2023-02-15T22:56:38.880Z,80.05
2023-02-15T22:59:16.202Z,82.22
2023-02-15T23:01:44.017Z,73.38
2023-02-15T23:04:20.938Z,77.75
2023-02-15T23:06:49.147Z,71.63
2023-02-15T23:09:17.049Z,76.65
2023-02-15T23:11:46.189Z,71.13
2023-02-15T23:14:35.246Z,74.60
2023-02-15T23:17:03.145Z,77.65
2023-02-15T23:19:30.834Z,64.95
2023-02-15T23:21:58.590Z,71.90
2023-02-15T23:24:31.601Z,69.72
2023-02-15T23:27:19.294Z,64.10
2023-02-15T23:29:47.117Z,65.32
2023-02-15T23:32:15.726Z,68.18
2023-02-15T23:34:43.581Z,65.97
2023-02-15T23:37:13.485Z,68.63
2023-02-15T23:39:59.804Z,61.65
2023-02-15T23:42:33.845Z,70.05
2023-02-15T23:45:02.434Z,68.80
2023-02-15T23:47:53.715Z,65.22
2023-02-15T23:50:29.496Z,65.95
2023-02-15T23:52:57.594Z,75.60
2023-02-15T23:55:37.551Z,72.45
2023-02-15T23:58:17.038Z,72.20
